Terminal Aerodrome Forecast
Issued by NWS

Home | Current Version | Previous Version | Text Only | Print | Product List | Glossary On
Versions: 1 2 3 4 5 6 7 8 9 10 11 12 13
000
FTUS45 KPSR 291522 AAA
TAFBLH
TAF AMD
KBLH 291522Z 2915/3012 20007KT P6SM FEW110 SCT150 BKN250
     FM291800 19012G22KT P6SM SCT100 BKN150 BKN250
     FM300000 20008KT P6SM VCSH FEW090 SCT120 BKN200=

USA.gov is the U.S. government's official web portal to all federal, state and local government web resources and services.